createdAt,value
2022-11-29T00:00:20.366Z,101321.09
2022-11-29T00:00:52.665Z,101321.28
2022-11-29T00:01:29.016Z,101319.00
2022-11-29T00:02:01.203Z,101326.38
2022-11-29T00:02:36.083Z,101325.72
2022-11-29T00:03:08.355Z,101318.75
2022-11-29T00:03:40.522Z,101323.25
2022-11-29T00:04:15.171Z,101321.41
2022-11-29T00:04:47.297Z,101327.56
2022-11-29T00:05:19.380Z,101325.72
2022-11-29T00:05:54.362Z,101323.88
2022-11-29T00:06:28.148Z,101329.22
2022-11-29T00:07:02.824Z,101324.06
2022-11-29T00:07:34.945Z,101329.59
2022-11-29T00:08:07.179Z,101318.13
2022-11-29T00:08:41.340Z,101326.72
2022-11-29T00:09:16.440Z,101323.25
2022-11-29T00:09:48.517Z,101324.28
2022-11-29T00:10:20.610Z,101321.41
2022-11-29T00:10:55.296Z,101322.41
2022-11-29T00:11:44.669Z,101318.94
2022-11-29T00:12:16.809Z,101332.00
2022-11-29T00:12:51.533Z,101322.78
2022-11-29T00:13:26.230Z,101323.63
2022-11-29T00:13:58.285Z,101322.63
2022-11-29T00:14:32.965Z,101325.91
2022-11-29T00:15:05.751Z,101321.41
2022-11-29T00:15:38.589Z,101323.06
2022-11-29T00:16:14.864Z,101314.25
2022-11-29T00:16:51.110Z,101314.41
2022-11-29T00:17:23.277Z,101317.28
2022-11-29T00:17:57.947Z,101321.63
2022-11-29T00:18:30.029Z,101320.78
2022-11-29T00:19:02.725Z,101320.78
2022-11-29T00:19:38.878Z,101325.06
2022-11-29T00:20:12.373Z,101312.81
2022-11-29T00:20:44.452Z,101319.75
2022-11-29T00:21:19.125Z,101317.09
2022-11-29T00:21:51.384Z,101326.09
2022-11-29T00:22:25.255Z,101325.47
2022-11-29T00:22:59.931Z,101322.19
2022-11-29T00:23:32.049Z,101314.38
2022-11-29T00:24:04.549Z,101320.53
2022-11-29T00:24:39.303Z,101318.47
2022-11-29T00:25:11.418Z,101320.97
2022-11-29T00:25:43.479Z,101317.47
2022-11-29T00:26:15.554Z,101319.13
2022-11-29T00:26:50.277Z,101319.31
2022-11-29T00:27:22.382Z,101317.03
2022-11-29T00:27:57.500Z,101326.03
2022-11-29T00:28:32.182Z,101324.56
2022-11-29T00:29:04.424Z,101321.09
2022-11-29T00:29:36.623Z,101326.22
2022-11-29T00:30:12.565Z,101320.91
2022-11-29T00:30:44.747Z,101325.41
2022-11-29T00:31:18.113Z,101335.22
2022-11-29T00:31:52.813Z,101321.91
2022-11-29T00:32:24.908Z,101324.56
2022-11-29T00:32:57.253Z,101319.88
2022-11-29T00:33:31.925Z,101327.84
2022-11-29T00:34:04.809Z,101327.03
2022-11-29T00:34:39.870Z,101325.19
2022-11-29T00:35:12.387Z,101331.56
2022-11-29T00:35:44.481Z,101325.41
2022-11-29T00:36:19.419Z,101323.56
2022-11-29T00:36:51.571Z,101327.22
2022-11-29T00:37:23.711Z,101320.25
2022-11-29T00:37:58.426Z,101323.75
2022-11-29T00:38:30.592Z,101321.91
2022-11-29T00:39:03.419Z,101320.91
2022-11-29T00:39:38.091Z,101319.88
2022-11-29T00:40:10.997Z,101324.19
2022-11-29T00:40:43.114Z,101320.91
2022-11-29T00:41:15.270Z,101317.59
2022-11-29T00:41:49.934Z,101321.09
2022-11-29T00:42:22.016Z,101325.75
2022-11-29T00:42:56.673Z,101320.44
2022-11-29T00:43:28.812Z,101325.31
2022-11-29T00:44:03.745Z,101327.34
2022-11-29T00:44:35.872Z,101315.06
2022-11-29T00:45:09.571Z,101322.81
2022-11-29T00:45:44.336Z,101320.00
2022-11-29T00:46:16.600Z,101319.38
2022-11-29T00:46:49.534Z,101319.38
2022-11-29T00:47:24.185Z,101322.81
2022-11-29T00:47:56.294Z,101326.13
2022-11-29T00:48:28.457Z,101306.69
2022-11-29T00:49:03.393Z,101317.31
2022-11-29T00:49:35.520Z,101318.34
2022-11-29T00:50:08.423Z,101322.03
2022-11-29T00:50:43.159Z,101315.22
2022-11-29T00:51:15.299Z,101319.72
2022-11-29T00:51:47.515Z,101321.75
2022-11-29T00:52:22.241Z,101319.28
2022-11-29T00:52:54.306Z,101314.97
2022-11-29T00:53:26.374Z,101322.75
2022-11-29T00:53:58.477Z,101316.44
2022-11-29T00:54:33.243Z,101314.78
2022-11-29T00:55:06.555Z,101319.09
2022-11-29T00:55:38.637Z,101325.25
2022-11-29T00:56:11.155Z,101321.56
2022-11-29T00:56:45.838Z,101320.09
2022-11-29T00:57:17.964Z,101324.78
2022-11-29T00:57:50.050Z,101321.94
2022-11-29T00:58:27.543Z,101323.59
2022-11-29T00:58:59.649Z,101320.28
2022-11-29T00:59:34.314Z,101323.59
2022-11-29T01:00:09.474Z,101326.44
2022-11-29T01:00:42.391Z,101321.28
2022-11-29T01:01:17.309Z,101319.44
2022-11-29T01:01:49.559Z,101326.59
2022-11-29T01:02:24.414Z,101323.78
2022-11-29T01:02:56.696Z,101325.44
2022-11-29T01:03:28.784Z,101329.75
2022-11-29T01:04:04.609Z,101326.03
2022-11-29T01:04:36.702Z,101329.53
2022-11-29T01:05:09.376Z,101325.88
2022-11-29T01:05:44.202Z,101319.72
2022-11-29T01:06:18.789Z,101329.34
2022-11-29T01:06:51.193Z,101326.53
2022-11-29T01:07:25.897Z,101328.16
2022-11-29T01:07:58.174Z,101323.47
2022-11-29T01:08:30.326Z,101322.25
2022-11-29T01:09:05.066Z,101314.28
2022-11-29T01:09:37.180Z,101315.09
2022-11-29T01:10:10.261Z,101319.44
2022-11-29T01:10:45.033Z,101316.75
2022-11-29T01:11:19.891Z,101312.44
2022-11-29T01:11:52.085Z,101314.94
2022-11-29T01:12:26.772Z,101315.09
2022-11-29T01:12:58.877Z,101305.69
2022-11-29T01:13:33.836Z,101316.31
2022-11-29T01:14:08.513Z,101306.84
2022-11-29T01:14:40.582Z,101311.94
2022-11-29T01:15:13.320Z,101314.97
2022-11-29T01:15:47.957Z,101305.53
2022-11-29T01:16:20.534Z,101314.97
2022-11-29T01:16:55.337Z,101318.44
2022-11-29T01:17:27.441Z,101319.44
2022-11-29T01:17:59.913Z,101310.47
2022-11-29T01:18:32.562Z,101314.78
2022-11-29T01:19:07.828Z,101317.44
2022-11-29T01:19:39.929Z,101317.81
2022-11-29T01:20:13.666Z,101316.16
2022-11-29T01:20:45.789Z,101318.84
2022-11-29T01:21:22.920Z,101317.16
2022-11-29T01:21:55.061Z,101314.69
2022-11-29T01:22:27.206Z,101315.06
2022-11-29T01:23:02.038Z,101311.78
2022-11-29T01:23:35.918Z,101315.25
2022-11-29T01:24:10.698Z,101314.25
2022-11-29T01:24:43.080Z,101314.06
2022-11-29T01:25:15.797Z,101308.53
2022-11-29T01:25:56.805Z,101312.84
2022-11-29T01:26:33.621Z,101312.22
2022-11-29T01:27:05.759Z,101315.91
2022-11-29T01:27:37.885Z,101312.41
2022-11-29T01:28:09.933Z,101311.41
2022-11-29T01:28:49.125Z,101314.91
2022-11-29T01:29:21.192Z,101310.13
2022-11-29T01:29:53.283Z,101309.47
2022-11-29T01:30:28.367Z,101311.13
2022-11-29T01:31:05.918Z,101310.97
2022-11-29T01:31:40.684Z,101308.47
2022-11-29T01:32:12.816Z,101317.28
2022-11-29T01:32:44.937Z,101316.63
2022-11-29T01:33:17.004Z,101313.81
2022-11-29T01:33:51.858Z,101317.91
2022-11-29T01:34:23.906Z,101318.56
2022-11-29T01:34:55.966Z,101315.72
2022-11-29T01:35:30.728Z,101324.16
2022-11-29T01:36:03.813Z,101319.44
2022-11-29T01:36:36.008Z,101319.94
2022-11-29T01:37:10.702Z,101321.56
2022-11-29T01:37:42.789Z,101317.88
2022-11-29T01:38:14.910Z,101309.06
2022-11-29T01:38:49.633Z,101311.75
2022-11-29T01:39:21.705Z,101319.09
2022-11-29T01:39:53.789Z,101324.41
2022-11-29T01:40:28.451Z,101315.78
2022-11-29T01:41:03.586Z,101320.09
2022-11-29T01:41:37.559Z,101318.28
2022-11-29T01:42:13.477Z,101310.28
2022-11-29T01:42:45.530Z,101316.63
2022-11-29T01:43:18.525Z,101318.28
2022-11-29T01:44:03.483Z,101318.28
2022-11-29T01:45:06.142Z,101319.44
2022-11-29T01:45:41.415Z,101322.31
2022-11-29T01:46:13.566Z,101318.84
2022-11-29T01:46:47.578Z,101323.50
2022-11-29T01:47:22.322Z,101326.38
2022-11-29T01:47:58.150Z,101319.38
2022-11-29T01:48:33.518Z,101320.22
2022-11-29T01:49:12.297Z,101323.06
2022-11-29T01:49:47.696Z,101320.34
2022-11-29T01:50:21.167Z,101322.72
2022-11-29T01:50:58.018Z,101316.91
2022-11-29T01:51:31.813Z,101313.81
2022-11-29T01:52:06.766Z,101312.16
2022-11-29T01:52:41.967Z,101312.34
2022-11-29T01:53:15.090Z,101316.47
2022-11-29T01:53:47.323Z,101319.78
2022-11-29T01:54:23.718Z,101314.25
2022-11-29T01:54:58.644Z,101311.59
2022-11-29T01:55:31.291Z,101312.25
2022-11-29T01:56:07.905Z,101315.09
2022-11-29T01:56:40.470Z,101314.09
2022-11-29T01:57:13.635Z,101312.25
2022-11-29T01:57:48.437Z,101314.91
2022-11-29T01:58:21.079Z,101312.44
2022-11-29T01:58:53.273Z,101315.09
2022-11-29T01:59:32.478Z,101320.41
2022-11-29T02:00:09.002Z,101313.47
2022-11-29T02:00:47.422Z,101309.97
2022-11-29T02:01:22.303Z,101315.09
2022-11-29T02:02:00.581Z,101314.09
2022-11-29T02:02:37.075Z,101316.56
2022-11-29T02:03:14.073Z,101312.06
2022-11-29T02:03:46.339Z,101320.06
2022-11-29T02:04:19.516Z,101317.19
2022-11-29T02:04:51.813Z,101319.84
2022-11-29T02:05:28.065Z,101317.19
2022-11-29T02:06:01.725Z,101312.69
2022-11-29T02:06:34.497Z,101318.66
2022-11-29T02:07:09.154Z,101312.34
2022-11-29T02:07:43.473Z,101309.69
2022-11-29T02:08:20.577Z,101316.84
2022-11-29T02:08:55.262Z,101311.53
2022-11-29T02:09:27.405Z,101311.53
2022-11-29T02:09:59.792Z,101308.84
2022-11-29T02:10:45.403Z,101305.16
2022-11-29T02:11:55.073Z,101309.16
2022-11-29T02:12:40.594Z,101307.88
2022-11-29T02:13:20.570Z,101311.53
2022-11-29T02:14:08.392Z,101306.22
2022-11-29T02:14:55.489Z,101302.72
2022-11-29T02:15:46.130Z,101308.44
2022-11-29T02:16:24.885Z,101303.09
2022-11-29T02:17:02.620Z,101301.06
2022-11-29T02:17:51.111Z,101315.19
2022-11-29T02:18:37.237Z,101297.34
2022-11-29T02:19:31.845Z,101312.47
2022-11-29T02:20:32.828Z,101309.81
2022-11-29T02:21:32.685Z,101304.28
2022-11-29T02:22:10.823Z,101300.63
2022-11-29T02:22:50.625Z,101299.41
2022-11-29T02:23:55.104Z,101300.44
2022-11-29T02:24:55.726Z,101292.09
2022-11-29T02:25:48.959Z,101293.69
2022-11-29T02:26:36.578Z,101291.63
2022-11-29T02:27:38.098Z,101291.25
2022-11-29T02:28:35.898Z,101293.75
2022-11-29T02:29:32.416Z,101297.22
2022-11-29T02:30:19.732Z,101302.56
2022-11-29T02:31:26.285Z,101297.06
2022-11-29T02:32:44.486Z,101315.31
2022-11-29T02:33:51.735Z,101320.63
2022-11-29T02:34:58.667Z,101317.78
2022-11-29T02:35:46.822Z,101316.56
2022-11-29T02:36:44.841Z,101317.41
2022-11-29T02:37:32.683Z,101319.25
2022-11-29T02:38:21.289Z,101320.91
2022-11-29T02:39:40.746Z,101316.56
2022-11-29T02:40:27.598Z,101312.47
2022-11-29T02:41:25.155Z,101315.69
2022-11-29T02:42:21.724Z,101320.50
2022-11-29T02:43:19.472Z,101317.41
2022-11-29T02:44:16.622Z,101321.06
2022-11-29T02:45:07.391Z,101317.59
2022-11-29T02:45:52.824Z,101320.06
2022-11-29T02:47:02.119Z,101329.69
2022-11-29T02:47:55.568Z,101324.38
2022-11-29T02:48:45.121Z,101323.94
2022-11-29T02:49:29.691Z,101322.09
2022-11-29T02:50:19.450Z,101327.75
2022-11-29T02:51:01.456Z,101321.63
2022-11-29T02:51:41.330Z,101317.94
2022-11-29T02:52:20.857Z,101319.59
2022-11-29T02:53:05.858Z,101316.28
2022-11-29T02:53:44.191Z,101318.16
2022-11-29T02:54:24.102Z,101322.28
2022-11-29T02:55:07.376Z,101320.25
2022-11-29T02:55:47.649Z,101316.56
2022-11-29T02:56:28.466Z,101324.38
2022-11-29T02:57:10.059Z,101324.00
2022-11-29T02:57:50.613Z,101323.00
2022-11-29T02:58:27.987Z,101327.69
2022-11-29T02:59:12.271Z,101323.38
2022-11-29T02:59:53.437Z,101321.88
2022-11-29T03:00:26.169Z,101320.88
2022-11-29T03:01:08.940Z,101324.56
2022-11-29T03:01:52.483Z,101320.81
2022-11-29T03:02:37.302Z,101326.13
2022-11-29T03:03:20.547Z,101329.78
2022-11-29T03:04:02.782Z,101321.63
2022-11-29T03:04:46.010Z,101321.63
2022-11-29T03:05:24.809Z,101322.28
2022-11-29T03:06:06.497Z,101312.28
2022-11-29T03:06:49.434Z,101323.56
2022-11-29T03:07:27.508Z,101319.06
2022-11-29T03:08:08.839Z,101316.41
2022-11-29T03:08:51.442Z,101315.41
2022-11-29T03:09:32.784Z,101312.75
2022-11-29T03:10:09.927Z,101323.72
2022-11-29T03:10:55.290Z,101313.91
2022-11-29T03:11:33.013Z,101320.06
2022-11-29T03:12:16.513Z,101313.91
2022-11-29T03:12:54.274Z,101311.09
2022-11-29T03:13:38.234Z,101311.91
2022-11-29T03:14:17.437Z,101316.41
2022-11-29T03:15:00.295Z,101322.53
2022-11-29T03:15:37.609Z,101319.06
2022-11-29T03:16:19.232Z,101321.72
2022-11-29T03:17:02.803Z,101319.88
2022-11-29T03:17:47.894Z,101333.19
2022-11-29T03:18:34.597Z,101327.69
2022-11-29T03:19:31.507Z,101337.78
2022-11-29T03:20:26.408Z,101328.16
2022-11-29T03:21:12.687Z,101321.81
2022-11-29T03:21:53.289Z,101322.63
2022-11-29T03:22:39.961Z,101330.59
2022-11-29T03:23:24.848Z,101325.09
2022-11-29T03:24:01.423Z,101327.59
2022-11-29T03:24:40.169Z,101330.03
2022-11-29T03:25:22.322Z,101326.38
2022-11-29T03:26:01.489Z,101330.69
2022-11-29T03:26:41.654Z,101321.91
2022-11-29T03:27:24.125Z,101319.06
2022-11-29T03:28:01.450Z,101329.69
2022-11-29T03:28:39.642Z,101323.16
2022-11-29T03:29:22.303Z,101326.50
2022-11-29T03:29:58.884Z,101322.00
2022-11-29T03:30:34.690Z,101322.00
2022-11-29T03:31:15.987Z,101328.13
2022-11-29T03:31:54.445Z,101320.97
2022-11-29T03:32:34.265Z,101326.50
2022-11-29T03:33:15.780Z,101329.03
2022-11-29T03:33:58.253Z,101337.41
2022-11-29T03:34:48.609Z,101332.25
2022-11-29T03:35:29.888Z,101337.41
2022-11-29T03:36:08.231Z,101332.72
2022-11-29T03:36:51.279Z,101320.91
2022-11-29T03:37:29.813Z,101326.66
2022-11-29T03:38:09.681Z,101327.31
2022-11-29T03:38:47.334Z,101326.09
2022-11-29T03:39:25.052Z,101326.75
2022-11-29T03:40:08.853Z,101323.28
2022-11-29T03:40:50.412Z,101327.75
2022-11-29T03:41:27.787Z,101325.09
2022-11-29T03:42:06.414Z,101330.44
2022-11-29T03:42:44.339Z,101327.94
2022-11-29T03:43:25.431Z,101328.31
2022-11-29T03:44:04.348Z,101339.13
2022-11-29T03:44:44.693Z,101333.19
2022-11-29T03:45:22.172Z,101341.91
2022-11-29T03:46:00.715Z,101336.56
2022-11-29T03:46:40.790Z,101344.19
2022-11-29T03:47:15.532Z,101345.00
2022-11-29T03:47:54.978Z,101350.16
2022-11-29T03:48:34.353Z,101346.66
2022-11-29T03:49:13.881Z,101351.81
2022-11-29T03:49:49.869Z,101349.16
2022-11-29T03:50:28.826Z,101344.44
2022-11-29T03:51:05.901Z,101347.13
2022-11-29T03:51:59.210Z,101340.13
2022-11-29T03:52:41.011Z,101345.56
2022-11-29T03:53:20.193Z,101339.97
2022-11-29T03:53:57.613Z,101348.13
2022-11-29T03:54:37.952Z,101347.31
2022-11-29T03:55:19.697Z,101354.19
2022-11-29T03:55:57.728Z,101345.19
2022-11-29T03:56:32.464Z,101351.16
2022-11-29T03:57:05.300Z,101353.63
2022-11-29T03:57:52.495Z,101352.25
2022-11-29T03:58:41.159Z,101350.13
2022-11-29T03:59:29.327Z,101352.34
2022-11-29T04:00:06.896Z,101348.84
2022-11-29T04:01:18.059Z,101347.03
2022-11-29T04:02:19.893Z,101336.78
2022-11-29T04:03:34.493Z,101346.75
2022-11-29T04:04:34.798Z,101332.44
2022-11-29T04:05:22.387Z,101338.78
2022-11-29T04:06:24.410Z,101335.66
2022-11-29T04:07:14.776Z,101344.63
2022-11-29T04:08:10.828Z,101341.34
2022-11-29T04:09:04.794Z,101344.19
2022-11-29T04:09:53.473Z,101346.84
2022-11-29T04:10:48.625Z,101349.31
2022-11-29T04:12:01.545Z,101353.16
2022-11-29T04:13:02.901Z,101355.81
2022-11-29T04:13:59.361Z,101355.81
2022-11-29T04:14:56.298Z,101354.34
2022-11-29T04:15:52.800Z,101369.19
2022-11-29T04:17:00.400Z,101358.94
2022-11-29T04:18:09.195Z,101364.25
2022-11-29T04:19:06.713Z,101357.91
2022-11-29T04:20:09.500Z,101355.72
2022-11-29T04:21:26.415Z,101358.19
2022-11-29T04:22:30.582Z,101359.00
2022-11-29T04:23:41.145Z,101363.16
2022-11-29T04:24:39.021Z,101356.34
2022-11-29T04:25:34.846Z,101361.50
2022-11-29T04:26:34.877Z,101365.00
2022-11-29T04:27:29.265Z,101358.19
2022-11-29T04:28:23.191Z,101360.00
2022-11-29T04:29:24.530Z,101358.72
2022-11-29T04:30:09.494Z,101356.91
2022-11-29T04:30:53.308Z,101358.94
2022-11-29T04:31:40.780Z,101364.25
2022-11-29T04:32:28.990Z,101363.41
2022-11-29T04:33:30.365Z,101365.88
2022-11-29T04:34:44.813Z,101363.88
2022-11-29T04:35:36.698Z,101357.28
2022-11-29T04:36:46.718Z,101363.75
2022-11-29T04:37:51.937Z,101362.28
2022-11-29T04:38:53.835Z,101369.28
2022-11-29T04:40:04.122Z,101365.59
2022-11-29T04:40:56.131Z,101363.97
2022-11-29T04:42:04.081Z,101364.94
2022-11-29T04:43:08.781Z,101367.44
2022-11-29T04:44:13.804Z,101370.72
2022-11-29T04:45:03.006Z,101363.59
2022-11-29T04:46:08.270Z,101375.03
2022-11-29T04:46:57.999Z,101369.91
2022-11-29T04:47:51.092Z,101367.06
2022-11-29T04:48:40.048Z,101377.34
2022-11-29T04:49:32.960Z,101369.19
2022-11-29T04:50:25.859Z,101368.81
2022-11-29T04:51:15.843Z,101374.59
2022-11-29T04:52:05.060Z,101367.44
2022-11-29T04:52:50.426Z,101367.44
2022-11-29T04:53:32.973Z,101361.31
2022-11-29T04:54:16.906Z,101373.78
2022-11-29T04:54:56.967Z,101367.44
2022-11-29T04:55:42.817Z,101367.44
2022-11-29T04:56:23.373Z,101365.63
2022-11-29T04:57:01.987Z,101370.75
2022-11-29T04:57:42.860Z,101362.78
2022-11-29T04:58:23.945Z,101373.59
2022-11-29T04:59:06.991Z,101368.09
2022-11-29T04:59:44.821Z,101368.28
2022-11-29T05:00:20.611Z,101368.94
2022-11-29T05:01:04.884Z,101378.38
2022-11-29T05:01:48.180Z,101374.88
2022-11-29T05:02:32.673Z,101378.38
2022-11-29T05:03:14.513Z,101376.38
2022-11-29T05:03:57.031Z,101379.66
2022-11-29T05:04:43.929Z,101385.63
2022-11-29T05:05:27.433Z,101374.34
2022-11-29T05:06:19.363Z,101380.03
2022-11-29T05:07:02.920Z,101377.53
2022-11-29T05:07:47.507Z,101380.84
2022-11-29T05:08:29.579Z,101376.53
2022-11-29T05:09:18.213Z,101373.88
2022-11-29T05:09:59.633Z,101370.38
2022-11-29T05:10:39.566Z,101364.06
2022-11-29T05:11:26.483Z,101363.06
2022-11-29T05:12:08.152Z,101366.56
2022-11-29T05:12:51.870Z,101370.69
2022-11-29T05:13:37.130Z,101367.00
2022-11-29T05:14:16.889Z,101361.03
2022-11-29T05:15:20.273Z,101365.91
2022-11-29T07:29:13.957Z,101469.00
2022-11-29T07:29:58.606Z,101477.16
2022-11-29T07:30:40.077Z,101471.03
2022-11-29T07:31:22.441Z,101472.84
2022-11-29T07:32:06.577Z,101470.56
2022-11-29T07:32:52.105Z,101474.03
2022-11-29T07:33:37.103Z,101477.50
2022-11-29T07:34:18.478Z,101470.38
2022-11-29T07:35:03.903Z,101470.03
2022-11-29T07:35:46.057Z,101473.31
2022-11-29T07:36:28.674Z,101476.44
2022-11-29T07:37:08.062Z,101471.94
2022-11-29T07:37:53.517Z,101468.13
2022-11-29T07:38:45.301Z,101466.75
2022-11-29T07:39:28.258Z,101466.75
2022-11-29T07:40:06.695Z,101466.75
2022-11-29T07:40:48.871Z,101466.56
2022-11-29T07:41:27.442Z,101469.22
2022-11-29T07:42:08.718Z,101476.19
2022-11-29T07:42:55.087Z,101467.22
2022-11-29T07:43:44.013Z,101471.34
2022-11-29T07:44:27.078Z,101469.50
2022-11-29T07:45:12.212Z,101468.50
2022-11-29T07:45:44.359Z,101470.34
2022-11-29T07:46:16.505Z,101470.50
2022-11-29T07:46:51.280Z,101464.94
2022-11-29T07:47:23.394Z,101464.09
2022-11-29T07:47:55.972Z,101470.25
2022-11-29T07:48:30.656Z,101468.38
2022-11-29T07:49:02.796Z,101475.38
2022-11-29T07:49:34.894Z,101473.53
2022-11-29T07:50:11.010Z,101470.88
2022-11-29T07:50:43.985Z,101466.75
2022-11-29T07:51:16.081Z,101469.88
2022-11-29T07:51:51.061Z,101467.22
2022-11-29T07:52:23.197Z,101473.91
2022-11-29T07:52:56.180Z,101469.13
2022-11-29T07:53:31.666Z,101478.25
2022-11-29T07:54:04.729Z,101468.66
2022-11-29T07:54:36.803Z,101472.31
2022-11-29T07:55:18.900Z,101474.97
2022-11-29T07:55:51.628Z,101473.03
2022-11-29T07:56:23.725Z,101462.59
2022-11-29T07:56:58.424Z,101462.59
2022-11-29T07:57:30.513Z,101464.22
2022-11-29T07:58:02.696Z,101455.06
2022-11-29T07:58:37.429Z,101453.03
2022-11-29T07:59:12.941Z,101453.03
2022-11-29T07:59:50.215Z,101458.56
2022-11-29T08:00:23.333Z,101464.88
2022-11-29T08:00:58.068Z,101466.53
2022-11-29T08:01:31.510Z,101462.69
2022-11-29T08:02:11.472Z,101458.03
2022-11-29T08:02:44.179Z,101457.72
2022-11-29T08:03:18.958Z,101463.69
2022-11-29T08:03:51.064Z,101461.03
2022-11-29T08:04:25.969Z,101460.03
2022-11-29T08:04:58.731Z,101452.72
2022-11-29T08:05:30.873Z,101458.50
2022-11-29T08:06:05.768Z,101466.31
2022-11-29T08:06:38.115Z,101459.50
2022-11-29T08:07:13.257Z,101461.97
2022-11-29T08:07:46.497Z,101463.81
2022-11-29T08:08:21.407Z,101455.66
2022-11-29T08:08:53.579Z,101459.78
2022-11-29T08:09:25.684Z,101460.25
2022-11-29T08:10:00.396Z,101463.56
2022-11-29T08:10:32.983Z,101462.53
2022-11-29T08:11:13.211Z,101454.56
2022-11-29T08:11:45.289Z,101458.41
2022-11-29T08:12:20.002Z,101451.63
2022-11-29T08:12:52.228Z,101460.59
2022-11-29T08:13:27.036Z,101462.44
2022-11-29T08:14:00.357Z,101454.63
2022-11-29T08:14:32.810Z,101459.78
2022-11-29T08:15:12.077Z,101456.94
2022-11-29T08:15:45.416Z,101454.09
2022-11-29T08:16:20.900Z,101459.06
2022-11-29T08:16:53.070Z,101457.41
2022-11-29T08:17:27.783Z,101458.41
2022-11-29T08:17:59.861Z,101454.94
2022-11-29T08:18:32.032Z,101456.59
2022-11-29T08:19:07.005Z,101461.06
2022-11-29T08:19:39.106Z,101455.09
2022-11-29T08:20:16.516Z,101454.47
2022-11-29T08:20:49.242Z,101460.16
2022-11-29T08:21:23.990Z,101450.69
2022-11-29T08:21:56.175Z,101456.19
2022-11-29T08:22:30.859Z,101456.00
2022-11-29T08:23:03.495Z,101465.47
2022-11-29T08:23:38.619Z,101454.47
2022-11-29T08:24:10.980Z,101457.28
2022-11-29T08:24:45.949Z,101451.16
2022-11-29T08:25:18.314Z,101445.81
2022-11-29T08:25:53.018Z,101450.34
2022-11-29T08:26:31.079Z,101455.16
2022-11-29T08:27:06.370Z,101442.78
2022-11-29T08:27:39.428Z,101444.75
2022-11-29T08:28:11.558Z,101451.50
2022-11-29T08:28:46.577Z,101449.69
2022-11-29T08:29:18.913Z,101449.50
2022-11-29T08:29:53.585Z,101451.16
2022-11-29T08:30:28.251Z,101445.03
2022-11-29T08:31:01.918Z,101447.84
2022-11-29T08:31:36.669Z,101455.84
2022-11-29T08:32:09.212Z,101457.50
2022-11-29T08:32:41.274Z,101459.13
2022-11-29T08:33:15.955Z,101462.44
2022-11-29T08:33:48.263Z,101457.13
2022-11-29T08:34:23.032Z,101451.44
2022-11-29T08:34:55.109Z,101449.44
2022-11-29T08:35:27.201Z,101459.06
2022-11-29T08:36:07.659Z,101451.72
2022-11-29T08:36:39.524Z,101445.50
2022-11-29T08:37:11.916Z,101448.97
2022-11-29T08:37:46.776Z,101449.59
2022-11-29T08:38:18.862Z,101450.44
2022-11-29T08:39:00.085Z,101444.94
2022-11-29T08:39:34.473Z,101442.47
2022-11-29T08:40:10.573Z,101444.75
2022-11-29T08:40:45.245Z,101441.09
2022-11-29T08:41:17.794Z,101447.91
2022-11-29T08:41:52.577Z,101443.75
2022-11-29T08:42:24.634Z,101439.09
2022-11-29T08:42:57.990Z,101441.56
2022-11-29T08:43:33.565Z,101441.38
2022-11-29T08:44:05.950Z,101437.72
2022-11-29T08:44:40.808Z,101440.84
2022-11-29T08:45:13.382Z,101444.97
2022-11-29T08:45:54.468Z,101450.09
2022-11-29T08:46:46.966Z,101451.59
2022-11-29T08:47:34.130Z,101443.78
2022-11-29T08:48:09.672Z,101446.44
2022-11-29T08:48:42.037Z,101448.94
2022-11-29T08:49:14.182Z,101446.91
2022-11-29T08:50:07.210Z,101442.41
2022-11-29T08:50:41.973Z,101447.06
2022-11-29T08:51:14.609Z,101435.44
2022-11-29T08:51:46.685Z,101442.25
2022-11-29T08:52:33.798Z,101436.91
2022-11-29T08:53:20.883Z,101433.78
2022-11-29T08:53:55.580Z,101435.81
2022-11-29T08:54:27.785Z,101432.97
2022-11-29T08:55:03.280Z,101431.13
2022-11-29T08:55:40.685Z,101428.28
2022-11-29T08:57:04.471Z,101428.28
2022-11-29T08:58:05.725Z,101435.41
2022-11-29T08:58:38.608Z,101438.44
2022-11-29T08:59:13.534Z,101431.28
2022-11-29T08:59:46.087Z,101441.91
2022-11-29T09:00:19.411Z,101433.94
2022-11-29T09:00:56.852Z,101434.13
2022-11-29T09:01:29.407Z,101435.31
2022-11-29T09:02:01.798Z,101434.13
2022-11-29T09:02:36.625Z,101431.28
2022-11-29T09:03:23.871Z,101437.44
2022-11-29T09:04:07.721Z,101430.09
2022-11-29T09:04:42.427Z,101444.03
2022-11-29T09:05:15.314Z,101436.72
2022-11-29T09:05:50.268Z,101436.34
2022-11-29T09:06:22.381Z,101441.66
2022-11-29T09:06:57.058Z,101436.97
2022-11-29T09:07:29.164Z,101435.97
2022-11-29T09:08:03.929Z,101435.97
2022-11-29T09:08:36.001Z,101442.13
2022-11-29T09:09:10.695Z,101435.81
2022-11-29T09:09:42.755Z,101439.28
2022-11-29T09:10:17.573Z,101441.75
2022-11-29T09:10:49.669Z,101442.59
2022-11-29T09:11:25.549Z,101438.09
2022-11-29T09:11:57.714Z,101440.59
2022-11-29T09:12:29.783Z,101426.63
2022-11-29T09:13:04.455Z,101437.72
2022-11-29T09:13:36.527Z,101434.44
2022-11-29T09:14:14.642Z,101428.28
2022-11-29T09:14:46.942Z,101437.47
2022-11-29T09:15:21.990Z,101431.84
2022-11-29T09:15:57.640Z,101431.41
2022-11-29T09:16:33.791Z,101428.09
2022-11-29T09:17:06.042Z,101435.22
2022-11-29T09:17:40.724Z,101428.91
2022-11-29T09:18:12.825Z,101438.34
2022-11-29T09:18:51.291Z,101436.53
2022-11-29T09:19:26.585Z,101430.38
2022-11-29T09:19:58.661Z,101433.69
2022-11-29T09:20:30.788Z,101437.81
2022-11-29T09:21:09.070Z,101433.97
2022-11-29T09:21:41.137Z,101433.97
2022-11-29T09:22:15.877Z,101428.28
2022-11-29T09:22:47.945Z,101427.28
2022-11-29T09:23:22.603Z,101426.28
2022-11-29T09:23:58.924Z,101435.25
2022-11-29T09:24:33.865Z,101427.00
2022-11-29T09:25:07.117Z,101427.00
2022-11-29T09:25:39.355Z,101428.19
2022-11-29T09:26:18.920Z,101433.69
2022-11-29T09:26:51.006Z,101429.75
2022-11-29T09:27:25.784Z,101435.88
2022-11-29T09:28:01.371Z,101428.75
2022-11-29T09:28:34.507Z,101427.72
2022-11-29T09:29:09.826Z,101428.38
2022-11-29T09:29:41.959Z,101424.06
2022-11-29T09:30:16.999Z,101423.22
2022-11-29T09:30:55.300Z,101425.88
2022-11-29T09:31:31.466Z,101425.88
2022-11-29T09:32:06.327Z,101420.38
2022-11-29T09:32:38.496Z,101420.38
2022-11-29T09:33:10.590Z,101417.34
2022-11-29T09:33:45.698Z,101419.19
2022-11-29T09:34:18.767Z,101412.69
2022-11-29T09:34:53.487Z,101419.69
2022-11-29T09:35:25.706Z,101425.00
2022-11-29T09:35:58.198Z,101415.97
2022-11-29T09:36:33.339Z,101418.84
2022-11-29T09:37:05.819Z,101412.88
2022-11-29T09:37:37.958Z,101425.53
2022-11-29T09:38:14.632Z,101423.69
2022-11-29T09:38:46.857Z,101425.72
2022-11-29T09:39:21.794Z,101417.34
2022-11-29T09:39:53.869Z,101424.50
2022-11-29T09:40:36.483Z,101416.34
2022-11-29T09:41:32.778Z,101415.69
2022-11-29T09:42:42.430Z,101422.94